Time;durP1;ratioP1;P1;durP2;ratioP2;P2;SDS_P1;SDS_P2;PMS_P1;PMS_P2;Temp;Humidity;BMP_temperature;BMP_pressure;BME280_temperature;BME280_humidity;BME280_pressure;Samples;Min_cycle;Max_cycle;Signal;HPM_P1;HPM_P2
2024/02/23 00:00:49;;;;;;;2.20;1.92;;;;;;;;;;5057898;28;20127;-71
2024/02/23 00:03:15;;;;;;;2.35;2.17;;;;;;;;;;5059203;28;20549;-71
2024/02/23 00:05:42;;;;;;;2.35;2.15;;;;;;;;;;5060659;28;20031;-71
2024/02/23 00:08:11;;;;;;;2.08;1.98;;;;;;;;;;5060378;28;20270;-71
2024/02/23 00:10:37;;;;;;;1.80;1.70;;;;;;;;;;5063363;28;20403;-71
2024/02/23 00:13:03;;;;;;;7.32;2.55;;;;;;;;;;5068117;28;20120;-71
2024/02/23 00:15:30;;;;;;;7.00;2.47;;;;;;;;;;5062203;28;20028;-71
2024/02/23 00:17:56;;;;;;;5.15;2.88;;;;;;;;;;5057352;28;20090;-71
2024/02/23 00:20:22;;;;;;;2.08;1.98;;;;;;;;;;5056288;28;20032;-71
2024/02/23 00:22:49;;;;;;;3.58;2.10;;;;;;;;;;5065005;28;20496;-71
2024/02/23 00:25:15;;;;;;;2.50;2.30;;;;;;;;;;5060002;28;20122;-71
2024/02/23 00:27:41;;;;;;;2.83;1.73;;;;;;;;;;5065374;28;20147;-71
2024/02/23 00:30:08;;;;;;;1.75;1.65;;;;;;;;;;5060872;28;20029;-71
2024/02/23 00:32:34;;;;;;;1.67;1.58;;;;;;;;;;5064876;28;20025;-71
2024/02/23 00:35:00;;;;;;;3.67;2.33;;;;;;;;;;5060514;28;20028;-71
2024/02/23 00:37:26;;;;;;;2.30;1.83;;;;;;;;;;5061665;28;20550;-71
2024/02/23 00:39:53;;;;;;;1.88;1.77;;;;;;;;;;5064728;28;20024;-70
2024/02/23 00:42:21;;;;;;;4.13;1.90;;;;;;;;;;5057090;28;20475;-71
2024/02/23 00:44:48;;;;;;;8.50;5.55;;;;;;;;;;5062081;28;20032;-71
2024/02/23 00:47:14;;;;;;;16.85;6.20;;;;;;;;;;5060905;28;20087;-71
2024/02/23 00:49:40;;;;;;;5.70;3.10;;;;;;;;;;5057847;28;20452;-71
2024/02/23 00:52:06;;;;;;;3.33;2.85;;;;;;;;;;5060956;28;20025;-71
2024/02/23 00:54:32;;;;;;;2.28;2.08;;;;;;;;;;5064948;28;20025;-70
2024/02/23 00:56:59;;;;;;;4.00;3.30;;;;;;;;;;5063882;28;20025;-71
2024/02/23 00:59:25;;;;;;;2.92;1.95;;;;;;;;;;5063060;28;20033;-70
2024/02/23 01:01:51;;;;;;;6.43;2.20;;;;;;;;;;5070601;28;20040;-70
2024/02/23 01:04:17;;;;;;;2.20;2.00;;;;;;;;;;5070286;28;20040;-70
2024/02/23 01:06:44;;;;;;;2.25;2.08;;;;;;;;;;5064092;28;20032;-71
2024/02/23 01:09:10;;;;;;;2.92;2.45;;;;;;;;;;5059433;28;20029;-71
2024/02/23 01:11:36;;;;;;;2.25;1.80;;;;;;;;;;5060917;28;20524;-71
2024/02/23 01:14:02;;;;;;;2.75;1.77;;;;;;;;;;5058384;28;20025;-70
2024/02/23 01:16:29;;;;;;;3.28;1.92;;;;;;;;;;5069848;28;20032;-70
2024/02/23 01:18:55;;;;;;;2.75;2.08;;;;;;;;;;5063996;28;20036;-71
2024/02/23 01:21:21;;;;;;;3.53;2.08;;;;;;;;;;5060308;28;20028;-71
2024/02/23 01:23:47;;;;;;;1.30;1.30;;;;;;;;;;5058473;28;20818;-71
2024/02/23 01:26:14;;;;;;;8.38;2.03;;;;;;;;;;5062786;28;20036;-70
2024/02/23 01:28:40;;;;;;;1.63;1.52;;;;;;;;;;5062743;28;20688;-70
2024/02/23 01:31:13;;;;;;;3.72;2.72;;;;;;;;;;5066770;28;20029;-71
2024/02/23 01:33:39;;;;;;;4.30;3.28;;;;;;;;;;5094404;28;20088;-71
2024/02/23 01:36:06;;;;;;;3.25;2.83;;;;;;;;;;5055565;28;20036;-71
2024/02/23 01:38:32;;;;;;;2.15;1.83;;;;;;;;;;5062620;28;20391;-70
2024/02/23 01:41:02;;;;;;;4.03;2.58;;;;;;;;;;5068458;28;20485;-70
2024/02/23 01:43:28;;;;;;;3.25;2.83;;;;;;;;;;5060405;28;20028;-71
2024/02/23 01:45:54;;;;;;;4.10;2.15;;;;;;;;;;5061829;28;20037;-71
2024/02/23 01:48:21;;;;;;;3.03;2.45;;;;;;;;;;5058009;28;20024;-71
2024/02/23 01:50:47;;;;;;;2.13;2.03;;;;;;;;;;5061482;28;20106;-71
2024/02/23 01:53:16;;;;;;;1.42;1.42;;;;;;;;;;5059567;28;20028;-71
2024/02/23 01:55:44;;;;;;;2.53;2.33;;;;;;;;;;5059605;28;20362;-71
2024/02/23 01:58:10;;;;;;;3.42;1.95;;;;;;;;;;5061366;28;20046;-71
2024/02/23 02:00:36;;;;;;;15.35;2.15;;;;;;;;;;5060015;28;20048;-71
2024/02/23 02:03:03;;;;;;;4.07;2.40;;;;;;;;;;5056124;28;20037;-71
2024/02/23 02:05:29;;;;;;;1.42;1.33;;;;;;;;;;5056485;28;20033;-71
2024/02/23 02:07:58;;;;;;;3.08;1.80;;;;;;;;;;5060901;28;20106;-71
2024/02/23 02:10:26;;;;;;;2.22;2.03;;;;;;;;;;5055213;28;20024;-71
2024/02/23 02:12:53;;;;;;;16.00;2.97;;;;;;;;;;5065015;28;20032;-71
2024/02/23 02:15:21;;;;;;;2.20;2.05;;;;;;;;;;5058881;28;20424;-71
2024/02/23 02:17:48;;;;;;;2.90;1.73;;;;;;;;;;5061115;28;20501;-71
2024/02/23 02:20:14;;;;;;;2.13;1.70;;;;;;;;;;5052453;28;20072;-71
2024/02/23 02:22:41;;;;;;;6.05;1.90;;;;;;;;;;5064038;28;20024;-71
2024/02/23 02:25:07;;;;;;;1.95;1.83;;;;;;;;;;5060464;28;20024;-71
2024/02/23 02:27:33;;;;;;;2.08;1.80;;;;;;;;;;5060320;28;20034;-71
2024/02/23 02:29:59;;;;;;;1.65;1.55;;;;;;;;;;5061830;28;20020;-71
2024/02/23 02:32:26;;;;;;;1.55;1.45;;;;;;;;;;5060706;28;20107;-71
2024/02/23 04:46:34;;;;;;;1.00;1.00;;;;;;;;;;5074919;28;20500;-72
2024/02/23 04:49:00;;;;;;;1.75;1.33;;;;;;;;;;5060781;28;20099;-72
2024/02/23 04:51:27;;;;;;;1.08;1.00;;;;;;;;;;5063568;28;20070;-72
2024/02/23 04:53:53;;;;;;;1.20;1.20;;;;;;;;;;5074922;28;20032;-72
2024/02/23 04:56:20;;;;;;;1.10;1.10;;;;;;;;;;5060683;28;20089;-72
2024/02/23 04:58:46;;;;;;;1.02;1.02;;;;;;;;;;5059440;28;20568;-72
2024/02/23 05:01:13;;;;;;;2.92;1.20;;;;;;;;;;5058870;28;20496;-72
2024/02/23 05:03:39;;;;;;;1.05;1.05;;;;;;;;;;5061990;28;20088;-72
2024/02/23 05:06:05;;;;;;;1.45;1.45;;;;;;;;;;5062315;28;20431;-72
2024/02/23 05:08:32;;;;;;;1.00;1.00;;;;;;;;;;5067285;28;20411;-71
2024/02/23 05:10:58;;;;;;;1.45;1.13;;;;;;;;;;5061172;28;20032;-72
2024/02/23 05:13:25;;;;;;;1.15;1.15;;;;;;;;;;5058352;28;20035;-71
2024/02/23 05:15:51;;;;;;;1.15;1.15;;;;;;;;;;5061769;28;20041;-72
2024/02/23 05:18:18;;;;;;;1.02;1.02;;;;;;;;;;5066793;28;20028;-72
2024/02/23 05:20:44;;;;;;;1.40;1.30;;;;;;;;;;5061772;28;20032;-72
2024/02/23 05:23:10;;;;;;;1.13;1.13;;;;;;;;;;5068523;28;20493;-71
2024/02/23 05:25:36;;;;;;;1.20;1.10;;;;;;;;;;5048988;28;20040;-72
2024/02/23 05:28:03;;;;;;;1.10;1.10;;;;;;;;;;5060546;28;20025;-71
2024/02/23 05:30:31;;;;;;;1.20;1.20;;;;;;;;;;5054875;28;20044;-72
2024/02/23 05:32:58;;;;;;;6.72;1.38;;;;;;;;;;5062749;28;20033;-72
2024/02/23 05:35:25;;;;;;;1.17;1.17;;;;;;;;;;5060764;28;20660;-72
2024/02/23 05:37:51;;;;;;;1.10;1.10;;;;;;;;;;5061562;28;20116;-71
2024/02/23 05:40:17;;;;;;;5.07;1.52;;;;;;;;;;5067593;28;20511;-72
2024/02/23 05:42:43;;;;;;;1.20;1.20;;;;;;;;;;5061837;28;20039;-72
2024/02/23 05:45:10;;;;;;;1.50;1.40;;;;;;;;;;5060096;28;20952;-71
2024/02/23 05:47:37;;;;;;;1.00;1.00;;;;;;;;;;5061677;28;20115;-72
2024/02/23 05:50:04;;;;;;;1.50;1.33;;;;;;;;;;5064388;28;20608;-72
2024/02/23 05:52:34;;;;;;;5.43;2.03;;;;;;;;;;5060191;28;20426;-71
2024/02/23 05:55:00;;;;;;;1.10;1.10;;;;;;;;;;5063798;28;20032;-72
2024/02/23 05:57:27;;;;;;;1.30;1.30;;;;;;;;;;5064113;28;20361;-71
2024/02/23 05:59:55;;;;;;;1.40;1.35;;;;;;;;;;5062619;28;20048;-72
2024/02/23 06:02:21;;;;;;;1.30;1.30;;;;;;;;;;5057929;28;20060;-72
2024/02/23 06:04:47;;;;;;;1.20;1.20;;;;;;;;;;5061319;28;20446;-72
2024/02/23 06:07:17;;;;;;;1.10;1.10;;;;;;;;;;5054966;28;20050;-71
2024/02/23 06:09:43;;;;;;;1.45;1.35;;;;;;;;;;5055711;28;20089;-72
2024/02/23 06:12:10;;;;;;;1.00;1.00;;;;;;;;;;5061180;28;20535;-71
2024/02/23 06:14:36;;;;;;;1.65;1.20;;;;;;;;;;5061271;28;20025;-72
2024/02/23 06:17:03;;;;;;;1.10;1.10;;;;;;;;;;5054983;28;20400;-71
2024/02/23 06:19:29;;;;;;;1.20;1.20;;;;;;;;;;5058398;28;20024;-72
2024/02/23 06:21:56;;;;;;;1.40;1.40;;;;;;;;;;5056342;28;20373;-72
2024/02/23 06:24:22;;;;;;;1.10;1.10;;;;;;;;;;5056835;28;20040;-71
2024/02/23 06:26:49;;;;;;;5.95;1.52;;;;;;;;;;5072239;28;20067;-71
2024/02/23 06:29:15;;;;;;;2.17;1.45;;;;;;;;;;5058295;28;20023;-72
2024/02/23 06:31:42;;;;;;;1.20;1.20;;;;;;;;;;5064742;28;20031;-72
2024/02/23 06:34:09;;;;;;;1.38;1.33;;;;;;;;;;5053890;28;20143;-72
2024/02/23 06:36:35;;;;;;;3.65;1.35;;;;;;;;;;5056466;28;20052;-71
2024/02/23 06:39:02;;;;;;;1.70;1.60;;;;;;;;;;5045087;28;20028;-72
2024/02/23 06:41:29;;;;;;;1.25;1.25;;;;;;;;;;5070696;28;20107;-72
2024/02/23 06:43:55;;;;;;;1.27;1.25;;;;;;;;;;5059345;28;20036;-72
2024/02/23 06:46:21;;;;;;;2.72;1.45;;;;;;;;;;5065031;28;20139;-72
2024/02/23 06:48:47;;;;;;;2.72;1.95;;;;;;;;;;5055658;28;20043;-72
2024/02/23 06:51:15;;;;;;;1.48;1.48;;;;;;;;;;5059594;28;20082;-72
2024/02/23 06:53:41;;;;;;;1.25;1.25;;;;;;;;;;5057882;28;20418;-72
2024/02/23 06:56:08;;;;;;;5.85;1.55;;;;;;;;;;5063622;28;20071;-72
2024/02/23 06:58:34;;;;;;;1.40;1.30;;;;;;;;;;5052698;28;20032;-72
2024/02/23 07:01:03;;;;;;;1.15;1.15;;;;;;;;;;5054428;28;20493;-72
2024/02/23 07:03:30;;;;;;;1.67;1.33;;;;;;;;;;5057123;28;20028;-72
2024/02/23 07:05:56;;;;;;;1.40;1.40;;;;;;;;;;5057210;28;20082;-72
2024/02/23 07:08:22;;;;;;;1.55;1.35;;;;;;;;;;5058691;28;20028;-72
2024/02/23 07:10:48;;;;;;;1.00;1.00;;;;;;;;;;5062218;28;20033;-72
2024/02/23 07:13:15;;;;;;;1.70;1.60;;;;;;;;;;5054414;28;20037;-72
2024/02/23 07:15:41;;;;;;;4.55;1.50;;;;;;;;;;5061806;28;20031;-72
2024/02/23 07:18:08;;;;;;;1.58;1.13;;;;;;;;;;5046385;28;20076;-72
2024/02/23 07:20:35;;;;;;;1.15;1.15;;;;;;;;;;5059471;28;20024;-72
2024/02/23 07:23:02;;;;;;;1.20;1.20;;;;;;;;;;5057385;28;20364;-73
2024/02/23 07:25:28;;;;;;;1.20;1.20;;;;;;;;;;5054867;28;20031;-72
2024/02/23 07:27:54;;;;;;;1.75;1.65;;;;;;;;;;5057924;28;20418;-72
2024/02/23 07:30:20;;;;;;;1.73;1.63;;;;;;;;;;5052264;28;20059;-72
2024/02/23 07:32:46;;;;;;;1.20;1.20;;;;;;;;;;5063907;28;20028;-72
2024/02/23 07:35:12;;;;;;;2.00;1.60;;;;;;;;;;5060946;28;20024;-72
2024/02/23 07:37:38;;;;;;;1.25;1.25;;;;;;;;;;5053023;28;20032;-72
2024/02/23 07:40:05;;;;;;;1.30;1.30;;;;;;;;;;5051142;28;20082;-72
2024/02/23 07:42:32;;;;;;;2.70;1.52;;;;;;;;;;5060393;28;20032;-72
2024/02/23 07:44:58;;;;;;;1.08;1.08;;;;;;;;;;5068074;28;20411;-72
2024/02/23 07:47:26;;;;;;;1.38;1.27;;;;;;;;;;5059048;28;20024;-72
2024/02/23 07:49:53;;;;;;;1.67;1.63;;;;;;;;;;5061182;28;20024;-71
2024/02/23 07:52:22;;;;;;;1.58;1.58;;;;;;;;;;5083260;28;20086;-72
2024/02/23 07:54:48;;;;;;;1.23;1.23;;;;;;;;;;5092364;28;20036;-72
2024/02/23 07:57:16;;;;;;;1.20;1.20;;;;;;;;;;5064722;28;20029;-72
2024/02/23 07:59:43;;;;;;;1.70;1.60;;;;;;;;;;5063868;28;20028;-72
2024/02/23 08:02:09;;;;;;;1.83;1.73;;;;;;;;;;5064516;28;20072;-72
2024/02/23 08:04:35;;;;;;;1.60;1.50;;;;;;;;;;5089561;28;20025;-72
2024/02/23 08:07:01;;;;;;;1.10;1.10;;;;;;;;;;5058050;28;20036;-72
2024/02/23 08:09:27;;;;;;;3.47;1.60;;;;;;;;;;5054553;28;20031;-72
2024/02/23 08:11:54;;;;;;;3.40;1.50;;;;;;;;;;5057910;28;20028;-72
2024/02/23 08:14:20;;;;;;;1.50;1.40;;;;;;;;;;5067822;28;20024;-72
2024/02/23 08:16:46;;;;;;;1.63;1.63;;;;;;;;;;5068375;28;20396;-71
2024/02/23 08:19:16;;;;;;;1.35;1.25;;;;;;;;;;5065581;28;20039;-72
2024/02/23 08:21:43;;;;;;;1.20;1.20;;;;;;;;;;5068297;28;20029;-71
2024/02/23 08:24:10;;;;;;;2.72;1.42;;;;;;;;;;5065236;28;20029;-72
2024/02/23 08:26:40;;;;;;;1.40;1.40;;;;;;;;;;5064698;28;20039;-73
2024/02/23 08:29:10;;;;;;;1.67;1.63;;;;;;;;;;5076122;28;20029;-71
2024/02/23 08:31:39;;;;;;;1.27;1.27;;;;;;;;;;5060884;28;20031;-69
2024/02/23 08:34:29;;;;;;;1.00;1.00;;;;;;;;;;5065414;28;20074;-72
2024/02/23 08:36:55;;;;;;;1.27;1.25;;;;;;;;;;5078816;28;20267;-72
2024/02/23 08:39:22;;;;;;;2.78;1.10;;;;;;;;;;5061507;28;20788;-72
2024/02/23 08:41:51;;;;;;;2.92;2.00;;;;;;;;;;5068745;28;20029;-70
2024/02/23 08:44:30;;;;;;;1.20;1.20;;;;;;;;;;5072957;28;20135;-72
2024/02/23 08:49:49;;;;;;;1.70;1.60;;;;;;;;;;5051755;28;20036;-70
2024/02/23 08:52:16;;;;;;;1.30;1.30;;;;;;;;;;5062805;28;20025;-70
2024/02/23 08:54:42;;;;;;;3.00;1.33;;;;;;;;;;5072618;28;20039;-69
2024/02/23 08:57:11;;;;;;;1.10;1.10;;;;;;;;;;5076631;28;20303;-71
2024/02/23 08:59:38;;;;;;;2.05;1.90;;;;;;;;;;5077331;28;20203;-71
2024/02/23 09:02:04;;;;;;;2.08;1.40;;;;;;;;;;5076804;28;20701;-67
2024/02/23 09:04:33;;;;;;;1.25;1.23;;;;;;;;;;5068060;28;20028;-71
2024/02/23 09:07:00;;;;;;;2.38;1.98;;;;;;;;;;5072139;28;20502;-62
2024/02/23 09:09:29;;;;;;;1.95;1.85;;;;;;;;;;5074376;28;20038;-61
2024/02/23 09:11:59;;;;;;;1.38;1.27;;;;;;;;;;5069383;28;20530;-62
2024/02/23 09:14:27;;;;;;;1.40;1.30;;;;;;;;;;5065436;28;20450;-63
2024/02/23 09:16:54;;;;;;;2.05;1.33;;;;;;;;;;5066250;28;20102;-62
2024/02/23 09:19:20;;;;;;;1.30;1.30;;;;;;;;;;5058873;28;20040;-61
2024/02/23 09:21:50;;;;;;;4.93;1.50;;;;;;;;;;5071096;28;20052;-65
2024/02/23 09:24:20;;;;;;;1.40;1.40;;;;;;;;;;5069167;28;20036;-61
2024/02/23 09:26:54;;;;;;;1.90;1.80;;;;;;;;;;5061823;28;20087;-62
2024/02/23 09:29:23;;;;;;;1.25;1.25;;;;;;;;;;5069531;28;20027;-62
2024/02/23 09:32:05;;;;;;;1.30;1.30;;;;;;;;;;5064508;28;20096;-62
2024/02/23 09:34:31;;;;;;;1.20;1.20;;;;;;;;;;5067567;28;20032;-62
2024/02/23 09:37:07;;;;;;;1.25;1.25;;;;;;;;;;5071981;28;20436;-62
2024/02/23 09:39:37;;;;;;;1.20;1.20;;;;;;;;;;5077932;28;20146;-62
2024/02/23 09:42:07;;;;;;;1.58;1.48;;;;;;;;;;5066370;28;20032;-61
2024/02/23 09:44:34;;;;;;;1.45;1.25;;;;;;;;;;5070502;28;20063;-61
2024/02/23 09:47:07;;;;;;;5.65;1.63;;;;;;;;;;5072963;28;20024;-61
2024/02/23 09:49:38;;;;;;;1.00;1.00;;;;;;;;;;5070491;28;20048;-62
2024/02/23 09:52:05;;;;;;;1.35;1.35;;;;;;;;;;5049027;28;20196;-61
2024/02/23 09:54:34;;;;;;;1.45;1.35;;;;;;;;;;5066310;28;20016;-61
2024/02/23 09:57:03;;;;;;;4.60;1.23;;;;;;;;;;5067937;28;20488;-61
2024/02/23 09:59:30;;;;;;;1.00;1.00;;;;;;;;;;5069066;28;20024;-61
2024/02/23 10:01:57;;;;;;;1.30;1.30;;;;;;;;;;5072046;28;20044;-62
2024/02/23 10:04:25;;;;;;;1.75;1.50;;;;;;;;;;5073362;28;20052;-61
2024/02/23 10:06:55;;;;;;;1.65;1.55;;;;;;;;;;5060294;28;20474;-61
2024/02/23 10:09:21;;;;;;;1.08;1.08;;;;;;;;;;5067962;28;20063;-62
2024/02/23 10:11:56;;;;;;;1.30;1.30;;;;;;;;;;5069603;28;20111;-62
2024/02/23 10:14:26;;;;;;;1.35;1.33;;;;;;;;;;5067885;28;20452;-61
2024/02/23 10:17:02;;;;;;;1.20;1.20;;;;;;;;;;5072278;28;20082;-62
2024/02/23 10:19:29;;;;;;;1.30;1.30;;;;;;;;;;5056079;28;20514;-61
2024/02/23 10:21:56;;;;;;;1.60;1.50;;;;;;;;;;5068101;28;20056;-64
2024/02/23 10:24:35;;;;;;;;;;;;;;;;;;;;;
2024/02/23 10:27:02;;;;;;;1.52;1.42;;;;;;;;;;5064363;28;20073;-62
2024/02/23 10:29:43;;;;;;;;;;;;;;;;;;;;;
2024/02/23 10:32:15;;;;;;;2.67;1.50;;;;;;;;;;5062359;28;20039;-63
2024/02/23 10:34:43;;;;;;;1.55;1.48;;;;;;;;;;5076902;28;20100;-62
2024/02/23 10:37:10;;;;;;;1.80;1.70;;;;;;;;;;5065453;28;20101;-62
2024/02/23 10:39:39;;;;;;;2.25;1.50;;;;;;;;;;5073371;28;20081;-63
2024/02/23 10:42:08;;;;;;;3.13;1.50;;;;;;;;;;5067526;28;20673;-62
2024/02/23 10:44:35;;;;;;;1.60;1.60;;;;;;;;;;5058200;28;20065;-63
2024/02/23 10:47:02;;;;;;;1.35;1.35;;;;;;;;;;5056948;28;20043;-63
2024/02/23 10:49:29;;;;;;;2.20;1.60;;;;;;;;;;5064528;28;20024;-61
2024/02/23 10:51:58;;;;;;;1.58;1.48;;;;;;;;;;5073075;28;20024;-62
2024/02/23 10:54:24;;;;;;;1.98;1.25;;;;;;;;;;5067521;28;20597;-61
2024/02/23 10:56:51;;;;;;;1.30;1.30;;;;;;;;;;5069573;28;20032;-62
2024/02/23 10:59:24;;;;;;;1.20;1.20;;;;;;;;;;5067657;28;20023;-62
2024/02/23 11:01:56;;;;;;;1.70;1.60;;;;;;;;;;5069516;28;20079;-62
2024/02/23 11:04:25;;;;;;;1.83;1.40;;;;;;;;;;5071397;28;20071;-61
2024/02/23 11:06:52;;;;;;;1.52;1.42;;;;;;;;;;5068701;28;20115;-61
2024/02/23 11:09:22;;;;;;;1.20;1.20;;;;;;;;;;5069380;28;20425;-62
2024/02/23 11:11:55;;;;;;;1.92;1.52;;;;;;;;;;5073527;28;20418;-61
2024/02/23 11:14:30;;;;;;;2.88;1.63;;;;;;;;;;5069702;28;20020;-61
2024/02/23 11:17:30;;;;;;;3.63;1.35;;;;;;;;;;5061109;28;20052;-63
2024/02/23 11:19:56;;;;;;;1.38;1.38;;;;;;;;;;5040530;28;20098;-62
2024/02/23 11:22:27;;;;;;;1.20;1.20;;;;;;;;;;5075777;28;20036;-62
2024/02/23 11:24:54;;;;;;;1.20;1.20;;;;;;;;;;5074206;28;20079;-62
2024/02/23 11:27:21;;;;;;;1.75;1.65;;;;;;;;;;5077261;28;20032;-62
2024/02/23 11:29:50;;;;;;;2.25;1.40;;;;;;;;;;5071822;28;20024;-61
2024/02/23 11:32:17;;;;;;;2.38;1.65;;;;;;;;;;5073522;28;20459;-61
2024/02/23 11:34:59;;;;;;;1.80;1.65;;;;;;;;;;5075813;28;20475;-62
2024/02/23 11:37:32;;;;;;;1.65;1.55;;;;;;;;;;5067251;28;20046;-64
2024/02/23 11:40:02;;;;;;;1.30;1.30;;;;;;;;;;5074074;28;20020;-61
2024/02/23 11:42:30;;;;;;;2.92;1.35;;;;;;;;;;5073327;28;20101;-64
2024/02/23 11:44:58;;;;;;;2.72;1.50;;;;;;;;;;5069128;28;20513;-65
2024/02/23 11:47:25;;;;;;;1.52;1.17;;;;;;;;;;5073127;28;21199;-63
2024/02/23 11:49:51;;;;;;;3.80;1.67;;;;;;;;;;5086080;28;20630;-71
2024/02/23 11:52:18;;;;;;;1.40;1.40;;;;;;;;;;5072430;28;20036;-70
2024/02/23 11:54:45;;;;;;;1.33;1.33;;;;;;;;;;5080110;28;20029;-73
2024/02/23 11:57:11;;;;;;;1.80;1.33;;;;;;;;;;5076874;28;20035;-74
2024/02/23 11:59:37;;;;;;;1.10;1.10;;;;;;;;;;5066496;28;20829;-73
2024/02/23 12:02:04;;;;;;;2.33;1.70;;;;;;;;;;5071745;28;20605;-73
2024/02/23 12:04:30;;;;;;;1.63;1.52;;;;;;;;;;5077715;28;20055;-73
2024/02/23 12:06:57;;;;;;;1.83;1.70;;;;;;;;;;5074431;28;20343;-73
2024/02/23 12:09:23;;;;;;;3.05;1.42;;;;;;;;;;5069101;28;20156;-73
2024/02/23 12:11:49;;;;;;;2.78;1.48;;;;;;;;;;5076042;28;20029;-73
2024/02/23 12:14:16;;;;;;;1.85;1.60;;;;;;;;;;5070519;28;20031;-62
2024/02/23 12:16:42;;;;;;;2.00;1.80;;;;;;;;;;5073120;28;20590;-61
2024/02/23 12:19:08;;;;;;;1.60;1.50;;;;;;;;;;5075051;28;20467;-62
2024/02/23 12:21:38;;;;;;;1.67;1.58;;;;;;;;;;5072477;28;20476;-67
2024/02/23 12:24:07;;;;;;;3.35;1.60;;;;;;;;;;5071440;28;20029;-62
2024/02/23 12:26:34;;;;;;;1.50;1.40;;;;;;;;;;5076408;28;20028;-70
2024/02/23 12:29:04;;;;;;;4.47;2.08;;;;;;;;;;5073261;28;20105;-63
2024/02/23 12:31:31;;;;;;;1.63;1.50;;;;;;;;;;5062200;28;20111;-66
2024/02/23 12:33:58;;;;;;;3.58;1.40;;;;;;;;;;5075811;28;20051;-63
2024/02/23 12:36:24;;;;;;;1.20;1.20;;;;;;;;;;5074908;28;20399;-62
2024/02/23 12:38:53;;;;;;;1.60;1.40;;;;;;;;;;5067380;28;20028;-62
2024/02/23 12:41:19;;;;;;;4.88;1.52;;;;;;;;;;5073266;28;20540;-62
2024/02/23 12:43:46;;;;;;;2.85;1.48;;;;;;;;;;5075276;28;20398;-63
2024/02/23 12:46:14;;;;;;;2.33;1.80;;;;;;;;;;5071481;28;20134;-63
2024/02/23 12:48:40;;;;;;;1.88;1.77;;;;;;;;;;5071086;28;20020;-63
2024/02/23 12:51:06;;;;;;;1.52;1.42;;;;;;;;;;5062668;28;20071;-65
2024/02/23 12:53:33;;;;;;;1.75;1.60;;;;;;;;;;5073484;28;20020;-62
2024/02/23 12:56:01;;;;;;;1.70;1.60;;;;;;;;;;5073447;28;20055;-62
2024/02/23 12:58:27;;;;;;;1.60;1.50;;;;;;;;;;5072941;28;20051;-62
2024/02/23 13:00:54;;;;;;;1.90;1.80;;;;;;;;;;5068710;28;20078;-63
2024/02/23 13:03:20;;;;;;;1.60;1.50;;;;;;;;;;5068954;28;20059;-63
2024/02/23 13:05:46;;;;;;;1.88;1.77;;;;;;;;;;5062474;28;20030;-64
2024/02/23 13:08:13;;;;;;;3.50;1.77;;;;;;;;;;5070726;28;20009;-63
2024/02/23 13:10:39;;;;;;;1.88;1.60;;;;;;;;;;5073717;28;20579;-63
2024/02/23 13:13:05;;;;;;;1.50;1.40;;;;;;;;;;5074658;28;20036;-63
2024/02/23 13:15:31;;;;;;;1.48;1.42;;;;;;;;;;5073848;28;20401;-62
2024/02/23 13:17:57;;;;;;;2.38;1.73;;;;;;;;;;5075168;28;20123;-63
2024/02/23 13:20:24;;;;;;;1.67;1.58;;;;;;;;;;5075604;28;20159;-62
2024/02/23 13:22:53;;;;;;;1.60;1.50;;;;;;;;;;5075142;28;20028;-64
2024/02/23 13:25:19;;;;;;;3.40;2.45;;;;;;;;;;5074544;28;20016;-62
2024/02/23 13:27:45;;;;;;;2.92;1.67;;;;;;;;;;5074227;28;20080;-62
2024/02/23 13:30:11;;;;;;;1.65;1.55;;;;;;;;;;5072033;28;20059;-62
2024/02/23 13:32:38;;;;;;;3.97;2.78;;;;;;;;;;5067336;28;20040;-63
2024/02/23 13:35:06;;;;;;;1.80;1.70;;;;;;;;;;5072752;28;20024;-63
2024/02/23 13:37:38;;;;;;;4.38;2.15;;;;;;;;;;5076108;28;20096;-63
2024/02/23 13:40:05;;;;;;;3.42;2.40;;;;;;;;;;5063452;28;20040;-63
2024/02/23 13:42:32;;;;;;;6.15;4.03;;;;;;;;;;5068040;28;20466;-63
2024/02/23 13:44:58;;;;;;;2.95;2.10;;;;;;;;;;5063363;28;20034;-63
2024/02/23 13:47:24;;;;;;;11.50;8.13;;;;;;;;;;5076198;28;20037;-63
2024/02/23 13:49:51;;;;;;;12.25;7.38;;;;;;;;;;5072698;28;20351;-63
2024/02/23 13:52:17;;;;;;;4.03;3.42;;;;;;;;;;5058529;28;20839;-63
2024/02/23 13:54:43;;;;;;;2.70;2.30;;;;;;;;;;5073887;28;20103;-63
2024/02/23 13:57:12;;;;;;;6.28;5.40;;;;;;;;;;5073731;28;20035;-62
2024/02/23 13:59:38;;;;;;;9.82;5.93;;;;;;;;;;5070386;28;20020;-70
2024/02/23 14:02:05;;;;;;;4.03;3.05;;;;;;;;;;5070416;28;20059;-70
2024/02/23 14:04:31;;;;;;;5.57;3.17;;;;;;;;;;5068553;28;20024;-69
2024/02/23 14:06:57;;;;;;;1.70;1.60;;;;;;;;;;5066192;28;20142;-70
2024/02/23 14:09:23;;;;;;;3.08;2.80;;;;;;;;;;5069079;28;20495;-68
2024/02/23 14:11:50;;;;;;;2.03;1.83;;;;;;;;;;5073502;28;20878;-71
2024/02/23 14:14:16;;;;;;;2.22;1.75;;;;;;;;;;5069203;28;20489;-71
2024/02/23 14:16:42;;;;;;;1.80;1.70;;;;;;;;;;5073277;28;20037;-71
2024/02/23 14:19:08;;;;;;;4.72;2.38;;;;;;;;;;5067205;28;20033;-72
2024/02/23 14:21:36;;;;;;;8.73;3.50;;;;;;;;;;5070191;28;20131;-72
2024/02/23 14:24:03;;;;;;;3.80;1.88;;;;;;;;;;5070133;28;20441;-72
2024/02/23 14:26:29;;;;;;;3.15;2.03;;;;;;;;;;5066821;28;20487;-73
2024/02/23 14:28:55;;;;;;;2.78;2.30;;;;;;;;;;5076890;28;20032;-70
2024/02/23 14:31:21;;;;;;;4.53;2.38;;;;;;;;;;5079515;28;20025;-71
2024/02/23 14:33:50;;;;;;;3.78;2.30;;;;;;;;;;5079320;28;20029;-72
2024/02/23 14:36:17;;;;;;;3.65;1.70;;;;;;;;;;5072144;28;20017;-69
2024/02/23 14:38:43;;;;;;;1.80;1.70;;;;;;;;;;5077582;28;20016;-67
2024/02/23 14:41:10;;;;;;;2.80;1.90;;;;;;;;;;5079927;28;20024;-66
2024/02/23 14:43:36;;;;;;;2.15;1.98;;;;;;;;;;5072284;28;20059;-67
2024/02/23 14:46:03;;;;;;;1.98;1.60;;;;;;;;;;5063706;28;20025;-68
2024/02/23 14:48:29;;;;;;;3.25;1.80;;;;;;;;;;5062085;28;20024;-68
2024/02/23 14:50:57;;;;;;;3.00;2.00;;;;;;;;;;5071182;28;20549;-72
2024/02/23 14:53:26;;;;;;;3.42;1.80;;;;;;;;;;5074651;28;20527;-68
2024/02/23 14:55:52;;;;;;;6.15;2.50;;;;;;;;;;5071615;28;20375;-69
2024/02/23 14:58:19;;;;;;;3.05;2.25;;;;;;;;;;5073966;28;20103;-72
2024/02/23 15:00:45;;;;;;;2.10;1.52;;;;;;;;;;5071396;28;20040;-71
2024/02/23 15:03:11;;;;;;;2.10;1.75;;;;;;;;;;5074202;28;20031;-64
2024/02/23 15:05:37;;;;;;;3.78;1.92;;;;;;;;;;5069498;28;20024;-61
2024/02/23 15:08:04;;;;;;;1.50;1.40;;;;;;;;;;5067375;28;20442;-60
2024/02/23 15:10:30;;;;;;;3.63;1.80;;;;;;;;;;5068379;28;20608;-61
2024/02/23 15:12:56;;;;;;;2.13;1.70;;;;;;;;;;5075222;28;20376;-61
2024/02/23 15:15:23;;;;;;;4.13;2.40;;;;;;;;;;5073419;28;20032;-62
2024/02/23 15:17:49;;;;;;;3.70;2.10;;;;;;;;;;5071722;28;20111;-61
2024/02/23 15:20:16;;;;;;;2.17;1.58;;;;;;;;;;5072504;28;20569;-61
2024/02/23 15:22:42;;;;;;;5.03;1.73;;;;;;;;;;5067890;28;20716;-61
2024/02/23 15:25:09;;;;;;;1.23;1.23;;;;;;;;;;5063576;28;20020;-60
2024/02/23 15:27:37;;;;;;;1.63;1.60;;;;;;;;;;5071336;28;20030;-61
2024/02/23 15:30:03;;;;;;;1.70;1.60;;;;;;;;;;5070534;28;20021;-61
2024/02/23 15:32:29;;;;;;;3.92;1.90;;;;;;;;;;5075870;28;20027;-61
2024/02/23 15:34:56;;;;;;;1.98;1.88;;;;;;;;;;5074605;28;20677;-62
2024/02/23 15:37:23;;;;;;;2.83;2.13;;;;;;;;;;5070226;28;20020;-61
2024/02/23 15:39:49;;;;;;;1.77;1.67;;;;;;;;;;5073856;28;20039;-62
2024/02/23 15:42:18;;;;;;;22.40;11.88;;;;;;;;;;5072884;28;20474;-61
2024/02/23 15:44:45;;;;;;;11.52;9.75;;;;;;;;;;5077459;28;20036;-61
2024/02/23 15:47:11;;;;;;;5.40;3.53;;;;;;;;;;5072442;28;20571;-63
2024/02/23 15:49:37;;;;;;;5.50;3.10;;;;;;;;;;5076835;28;20046;-61
2024/02/23 15:52:04;;;;;;;5.13;3.83;;;;;;;;;;5070476;28;20024;-62
2024/02/23 15:54:31;;;;;;;3.00;2.50;;;;;;;;;;5084842;28;20032;-62
2024/02/23 15:56:58;;;;;;;3.65;3.20;;;;;;;;;;5075526;28;20045;-60
2024/02/23 15:59:24;;;;;;;2.15;1.95;;;;;;;;;;5067596;28;20035;-61
2024/02/23 16:01:50;;;;;;;20.35;3.60;;;;;;;;;;5058545;28;20456;-61
2024/02/23 16:04:16;;;;;;;10.30;2.95;;;;;;;;;;5064264;28;20487;-61
2024/02/23 16:06:43;;;;;;;3.85;3.45;;;;;;;;;;5061267;28;20029;-61
2024/02/23 16:09:09;;;;;;;8.15;6.00;;;;;;;;;;5062472;28;20396;-61
2024/02/23 16:11:36;;;;;;;5.57;4.60;;;;;;;;;;5065461;28;20303;-64
2024/02/23 16:14:05;;;;;;;14.25;9.10;;;;;;;;;;5065376;28;20021;-61
2024/02/23 16:16:31;;;;;;;9.60;5.20;;;;;;;;;;5057579;28;20036;-61
2024/02/23 16:18:58;;;;;;;9.68;6.00;;;;;;;;;;5058408;28;20106;-61
2024/02/23 16:21:24;;;;;;;8.15;4.05;;;;;;;;;;5061509;28;20039;-61
2024/02/23 16:23:50;;;;;;;6.43;5.55;;;;;;;;;;5071759;28;20627;-61
2024/02/23 16:26:16;;;;;;;9.23;5.10;;;;;;;;;;5056762;28;20365;-61
2024/02/23 16:28:43;;;;;;;7.93;3.20;;;;;;;;;;5048307;28;20032;-62
2024/02/23 16:31:09;;;;;;;7.70;4.18;;;;;;;;;;5052804;28;20032;-61
2024/02/23 16:33:35;;;;;;;11.73;4.22;;;;;;;;;;5065118;28;20475;-63
2024/02/23 16:36:01;;;;;;;8.73;5.05;;;;;;;;;;5090484;28;20527;-62
2024/02/23 16:38:27;;;;;;;10.80;4.03;;;;;;;;;;5059816;28;20488;-61
2024/02/23 16:40:54;;;;;;;6.80;2.22;;;;;;;;;;5056879;28;20109;-60
2024/02/23 16:43:20;;;;;;;3.53;2.20;;;;;;;;;;5057802;28;20588;-61
2024/02/23 16:45:46;;;;;;;4.43;2.55;;;;;;;;;;5060095;28;20551;-61
2024/02/23 16:48:12;;;;;;;5.00;2.83;;;;;;;;;;5065228;28;20025;-61
2024/02/23 16:50:40;;;;;;;3.15;2.00;;;;;;;;;;5060560;28;20558;-61
2024/02/23 16:53:07;;;;;;;4.43;2.92;;;;;;;;;;5058815;28;20487;-62
2024/02/23 16:55:33;;;;;;;3.90;2.45;;;;;;;;;;5060501;28;20552;-61
2024/02/23 16:57:59;;;;;;;4.15;3.08;;;;;;;;;;5063811;28;20032;-61
2024/02/23 17:00:29;;;;;;;2.55;2.13;;;;;;;;;;5062100;28;20612;-61